Nearby METAR Reports

 

KCOS - Colorado Springs, Colorado, USA
Distance from station: S 6mi, 9km
Updated: 12/31/1969 5:00pm
NOT Current
unable to load KCOS data RC=404 Not Found
unable to load KCOS data RC=404 Not Found
 
KAFF - Usaf Academy/Cos, Colorado, USA
Distance from station: NW 7mi, 12km
Updated: 05/25/2018 3:27pm
Clear
Clear
 Wind from SSE
Wind: SSE 17 mph , 28 km/h, Gust: 22 mph , 35 km/h
Temperature: 84°F , 29°C
Dew Point: 21°F , -6°C
Humidity: 10%
Barometer: 30.08 inHg , 1018.6 hPa
Clouds: Clear
Visibility: 10 miles , 16 km
2018/05/25 21:27 KAFF 252127Z AUTO 16015G19KT 10SM CLR 29/M06 A3008 RMK AO2 WSHFT 25 SLP104
 
KFLY - Co Spngs Meadow, Colorado, USA
Distance from station: ENE 8mi, 13km
Updated: 05/25/2018 3:55pm
Clear
Clear
 Wind from SE
Wind: SE 12 mph , 19 km/h, Gust: 20 mph , 31 km/h
Temperature: 84°F , 29°C
Dew Point: 21°F , -6°C
Humidity: 10%
Barometer: 30.14 inHg , 1020.7 hPa
Clouds: Clear
Visibility: 10 miles , 16 km
2018/05/25 21:55 KFLY 252155Z AUTO 14010G17KT 10SM CLR 29/M06 A3014 RMK AO2 T02861062
KFCS - Fort Carson, Colorado, USA
Distance from station: S 17mi, 27km
Updated: 05/25/2018 3:39pm
Few Clouds
Few Clouds
 Wind from ESE
Wind: ESE 18 mph , 30 km/h, Gust: 25 mph , 41 km/h
Temperature: 90°F , 32°C
Dew Point: 28°F , -2°C
Humidity: 11%
Barometer: 30.02 inHg , 1016.6 hPa
Clouds: Few Clouds
Visibility: 10 miles , 16 km
Cloud details: Few Clouds 15000 ft
2018/05/25 21:39 KFCS 252139Z AUTO 12016G22KT 10SM FEW150 32/M02 A3002 RMK AO2 WSHFT 32 SLP104 $
 
KMNH - Monument/Elbert, Colorado, USA
Distance from station: N 22mi, 35km
Updated: 05/25/2018 3:53pm
Clear
Clear
 Wind from SE
Wind: SE 10 mph , 17 km/h, Gust: 23 mph , 37 km/h
Temperature: 79°F , 26°C
Dew Point: 27°F , -3°C
Humidity: 15%
Barometer: 30.15 inHg , 1021 hPa
Clouds: Clear
Visibility: 10 miles , 16 km
2018/05/25 21:53 KMNH 252153Z AUTO 13009G20KT 10SM CLR 26/M03 A3015 RMK AO2
K1V6 - Canon City, Colorado, USA
Distance from station: SSW 39mi, 62km
Updated: 12/31/1969 5:00pm
NOT Current
unable to load K1V6 data RC=404 Not Found
unable to load K1V6 data RC=404 Not Found
 
 
KPUB - Pueblo, Colorado, USA
Distance from station: SSE 44mi, 71km
Updated: 05/25/2018 3:53pm
Clear
Clear
 Wind from calm
Wind: Calm
Temperature: 91°F , 33°C
Dew Point: 34°F , 1°C
Humidity: 13%
Barometer: 29.95 inHg , 1014.2 hPa
Clouds: Clear
Visibility: 10 miles , 16 km
2018/05/25 21:53 KPUB 252153Z AUTO 00000KT 10SM CLR 33/01 A2995 RMK AO2 SLP074 T03330006
KAPA - Denver/Arapahoe, Colorado, USA
Distance from station: N 47mi, 75km
Updated: 05/25/2018 3:53pm
Few Clouds
Few Clouds
 Wind from SE
Wind: SE 12 mph , 19 km/h
Temperature: 88°F , 31°C
Dew Point: 30°F , -1°C
Humidity: 13%
Barometer: 30.03 inHg , 1016.9 hPa
Clouds: Few Clouds
Visibility: 10 miles , 16 km
Cloud details: Few Clouds 10000 ft
Few Clouds 22000 ft
2018/05/25 21:53 KAPA 252153Z 14010KT 10SM FEW100 FEW220 31/M01 A3003 RMK AO2 SLP092 T03111006